createdAt,value
2019-05-16T00:02:48.115Z,10.13
2019-05-16T00:05:54.141Z,10.12
2019-05-16T00:08:36.108Z,10.10
2019-05-16T00:23:56.161Z,10.07
2019-05-16T00:26:42.977Z,10.02
2019-05-16T00:41:52.992Z,9.97
2019-05-16T00:44:39.761Z,9.96
2019-05-16T00:50:33.293Z,9.93
2019-05-16T00:56:28.864Z,10.63
2019-05-16T00:59:14.991Z,10.81
2019-05-16T01:02:02.764Z,10.20
2019-05-16T01:04:49.374Z,10.05
2019-05-16T01:07:36.343Z,9.98
2019-05-16T01:19:42.347Z,9.71
2019-05-16T01:31:48.403Z,9.50
2019-05-16T01:40:46.091Z,9.36
2019-05-16T01:49:45.406Z,9.24
2019-05-16T01:52:32.234Z,9.24
2019-05-16T01:55:19.068Z,9.22
2019-05-16T01:58:08.025Z,9.20
2019-05-16T02:01:06.054Z,9.17
2019-05-16T02:03:40.831Z,9.17
2019-05-16T02:06:28.801Z,9.17
2019-05-16T02:09:15.057Z,9.17
2019-05-16T02:12:01.977Z,9.18
2019-05-16T02:21:01.377Z,9.83
2019-05-16T02:26:54.058Z,9.19
2019-05-16T02:29:41.619Z,9.14
2019-05-16T02:32:31.235Z,9.08
2019-05-16T02:35:16.158Z,9.05
2019-05-16T02:38:03.407Z,9.01
2019-05-16T02:40:51.285Z,8.97
2019-05-16T02:43:37.293Z,9.63
2019-05-16T02:46:24.074Z,9.17
2019-05-16T02:52:17.427Z,8.88
2019-05-16T02:55:05.355Z,8.79
2019-05-16T02:57:52.473Z,8.72
2019-05-16T03:00:42.584Z,8.70
2019-05-16T03:03:26.702Z,8.69
2019-05-16T03:06:14.416Z,8.68
2019-05-16T03:09:04.989Z,8.64
2019-05-16T03:11:51.007Z,8.61
2019-05-16T03:14:35.506Z,8.58
2019-05-16T03:17:22.690Z,8.57
2019-05-16T03:20:10.811Z,8.53
2019-05-16T03:22:57.198Z,8.48
2019-05-16T03:25:44.647Z,8.43
2019-05-16T03:28:31.589Z,8.38
2019-05-16T03:31:23.839Z,8.37
2019-05-16T03:37:14.185Z,8.29
2019-05-16T03:40:00.813Z,8.89
2019-05-16T03:42:47.220Z,8.47
2019-05-16T03:45:34.559Z,8.39
2019-05-16T03:48:21.980Z,8.33
2019-05-16T03:51:11.389Z,8.28
2019-05-16T03:53:56.635Z,8.25
2019-05-16T03:56:43.835Z,8.21
2019-05-16T03:59:31.973Z,8.19
2019-05-16T04:02:21.560Z,8.17
2019-05-16T04:05:06.306Z,8.16
2019-05-16T04:11:01.280Z,8.32
2019-05-16T04:13:46.937Z,8.25
2019-05-16T04:16:34.445Z,8.21
2019-05-16T04:19:21.759Z,8.18
2019-05-16T04:22:10.403Z,8.18
2019-05-16T04:24:56.481Z,8.18
2019-05-16T04:27:43.656Z,8.15
2019-05-16T04:30:31.438Z,8.12
2019-05-16T04:33:17.768Z,8.09
2019-05-16T04:36:04.400Z,8.11
2019-05-16T04:38:51.683Z,8.05
2019-05-16T04:41:40.988Z,8.05
2019-05-16T04:44:26.724Z,8.05
2019-05-16T04:47:13.944Z,8.06
2019-05-16T04:50:01.896Z,8.06
2019-05-16T04:52:51.459Z,8.07
2019-05-16T04:55:35.620Z,8.07
2019-05-16T05:01:30.705Z,8.11
2019-05-16T05:04:16.817Z,8.14
2019-05-16T05:07:03.540Z,8.18
2019-05-16T05:12:58.118Z,8.16
2019-05-16T05:15:45.385Z,8.19
2019-05-16T05:18:33.168Z,8.24
2019-05-16T05:21:23.689Z,8.25
2019-05-16T05:24:11.224Z,8.24
2019-05-16T05:26:59.799Z,8.23
2019-05-16T05:29:46.546Z,8.19
2019-05-16T05:32:37.246Z,8.16
2019-05-16T05:35:24.161Z,8.12
2019-05-16T05:38:11.292Z,8.13
2019-05-16T05:41:00.221Z,8.14
2019-05-16T05:43:45.535Z,8.89
2019-05-16T05:46:32.199Z,8.38
2019-05-16T05:49:20.477Z,8.32
2019-05-16T05:52:11.227Z,8.29
2019-05-16T05:54:54.296Z,8.32
2019-05-16T05:57:41.222Z,8.29
2019-05-16T06:00:30.316Z,8.33
2019-05-16T06:03:14.745Z,8.33
2019-05-16T06:06:01.433Z,8.35
2019-05-16T06:08:50.248Z,9.15
2019-05-16T06:11:35.051Z,8.72
2019-05-16T06:14:21.707Z,8.62
2019-05-16T06:17:11.428Z,9.36
2019-05-16T06:19:56.731Z,8.87
2019-05-16T06:22:44.166Z,8.76
2019-05-16T06:25:32.179Z,8.74
2019-05-16T06:28:20.544Z,8.71
2019-05-16T06:31:14.601Z,8.75
2019-05-16T06:34:08.283Z,8.73
2019-05-16T06:36:50.697Z,8.77
2019-05-16T06:39:41.745Z,8.81
2019-05-16T06:42:22.554Z,9.57
2019-05-16T06:45:10.311Z,9.86
2019-05-16T06:47:56.628Z,9.33
2019-05-16T06:50:43.438Z,9.23
2019-05-16T06:59:44.396Z,9.57
2019-05-16T07:02:34.441Z,9.54
2019-05-16T07:05:20.558Z,9.56
2019-05-16T07:08:05.555Z,10.48
2019-05-16T07:10:53.675Z,9.95
2019-05-16T07:13:41.090Z,9.91
2019-05-16T07:16:29.927Z,9.82
2019-05-16T07:19:15.283Z,9.78
2019-05-16T07:22:02.757Z,9.83
2019-05-16T07:24:51.081Z,9.85
2019-05-16T07:27:40.168Z,9.96
2019-05-16T07:30:25.225Z,10.14
2019-05-16T07:33:12.040Z,10.28
2019-05-16T07:36:00.383Z,10.34
2019-05-16T07:38:46.204Z,10.33
2019-05-16T07:41:34.927Z,10.26
2019-05-16T07:44:22.151Z,10.23
2019-05-16T07:47:16.917Z,10.14
2019-05-16T07:50:04.389Z,10.10
2019-05-16T07:52:51.406Z,10.02
2019-05-16T07:55:40.026Z,9.88
2019-05-16T07:58:25.512Z,9.95
2019-05-16T08:01:13.015Z,9.97
2019-05-16T08:04:02.534Z,10.00
2019-05-16T08:06:50.299Z,10.05
2019-05-16T08:09:39.614Z,10.03
2019-05-16T08:12:26.488Z,10.03
2019-05-16T08:18:21.412Z,10.01
2019-05-16T08:21:06.903Z,10.01
2019-05-16T08:23:54.010Z,10.02
2019-05-16T08:26:43.137Z,10.91
2019-05-16T08:32:34.006Z,10.29
2019-05-16T08:35:21.303Z,10.21
2019-05-16T08:38:07.652Z,10.06
2019-05-16T08:41:11.834Z,9.92
2019-05-16T08:43:42.528Z,9.93
2019-05-16T08:46:32.100Z,9.96
2019-05-16T08:49:16.026Z,10.05
2019-05-16T08:55:12.359Z,10.12
2019-05-16T08:57:55.592Z,10.11
2019-05-16T09:00:42.431Z,10.15
2019-05-16T09:09:52.171Z,10.41
2019-05-16T09:15:48.117Z,10.59
2019-05-16T09:18:40.783Z,10.67
2019-05-16T09:21:18.804Z,10.71
2019-05-16T09:24:07.345Z,10.70
2019-05-16T09:26:53.973Z,10.70
2019-05-16T09:29:40.780Z,10.62
2019-05-16T09:32:28.144Z,10.68
2019-05-16T09:35:17.183Z,10.74
2019-05-16T09:38:02.156Z,11.75
2019-05-16T09:43:58.840Z,11.11
2019-05-16T09:46:44.338Z,11.02
2019-05-16T09:49:31.375Z,10.96
2019-05-16T09:52:18.086Z,10.95
2019-05-16T09:55:07.043Z,11.02
2019-05-16T09:57:54.882Z,11.06
2019-05-16T10:00:40.049Z,11.07
2019-05-16T10:03:27.387Z,11.11
2019-05-16T10:06:18.710Z,11.07
2019-05-16T10:09:01.702Z,11.10
2019-05-16T10:12:05.267Z,11.08
2019-05-16T10:14:37.790Z,11.12
2019-05-16T10:17:23.591Z,11.13
2019-05-16T10:20:11.005Z,11.05
2019-05-16T10:22:58.128Z,11.98
2019-05-16T10:25:47.963Z,11.38
2019-05-16T10:28:31.919Z,11.28
2019-05-16T10:31:18.811Z,12.23
2019-05-16T10:34:07.689Z,12.46
2019-05-16T10:36:53.699Z,11.72
2019-05-16T10:39:40.802Z,11.63
2019-05-16T10:42:29.342Z,11.60
2019-05-16T10:45:16.642Z,11.60
2019-05-16T10:48:03.283Z,11.58
2019-05-16T10:57:02.957Z,11.46
2019-05-16T11:00:06.480Z,11.36
2019-05-16T11:02:37.249Z,11.41
2019-05-16T11:08:46.554Z,11.39
2019-05-16T11:11:31.874Z,11.34
2019-05-16T11:14:18.646Z,11.31
2019-05-16T11:17:07.363Z,11.30
2019-05-16T11:19:53.185Z,11.31
2019-05-16T11:22:40.339Z,11.30
2019-05-16T11:25:31.849Z,11.25
2019-05-16T11:28:14.176Z,11.28
2019-05-16T11:31:03.802Z,11.28
2019-05-16T11:33:47.961Z,11.33
2019-05-16T11:36:37.479Z,11.34
2019-05-16T11:39:22.270Z,11.47
2019-05-16T11:48:24.951Z,11.59
2019-05-16T11:51:08.366Z,12.68
2019-05-16T11:53:59.877Z,12.20
2019-05-16T11:56:42.632Z,12.24
2019-05-16T11:59:29.581Z,13.25
2019-05-16T12:02:31.686Z,12.61
2019-05-16T12:05:18.803Z,12.56
2019-05-16T12:08:07.721Z,12.65
2019-05-16T12:10:52.831Z,12.78
2019-05-16T12:13:40.750Z,12.87
2019-05-16T12:16:28.377Z,13.97
2019-05-16T12:19:17.915Z,13.28
2019-05-16T12:22:07.039Z,13.43
2019-05-16T12:24:52.496Z,13.56
2019-05-16T12:27:42.250Z,14.66
2019-05-16T12:30:27.651Z,13.87
2019-05-16T12:33:18.335Z,13.64
2019-05-16T12:36:01.888Z,13.53
2019-05-16T12:38:48.593Z,13.41
2019-05-16T12:41:41.012Z,13.20
2019-05-16T12:44:23.483Z,13.09
2019-05-16T12:47:10.248Z,12.98
2019-05-16T12:49:57.094Z,12.89
2019-05-16T12:52:47.187Z,12.82
2019-05-16T12:55:31.118Z,12.73
2019-05-16T12:58:24.987Z,12.68
2019-05-16T13:01:07.825Z,12.71
2019-05-16T13:03:52.056Z,12.69
2019-05-16T13:06:38.964Z,12.76
2019-05-16T13:09:29.034Z,13.76
2019-05-16T13:12:17.538Z,13.07
2019-05-16T13:15:10.532Z,12.90
2019-05-16T13:17:59.493Z,12.73
2019-05-16T13:20:47.120Z,12.52
2019-05-16T13:23:33.804Z,12.41
2019-05-16T13:26:20.975Z,12.34
2019-05-16T13:29:07.980Z,12.30
2019-05-16T13:31:57.060Z,12.40
2019-05-16T13:34:42.910Z,13.44
2019-05-16T13:37:31.276Z,12.82
2019-05-16T13:40:18.145Z,12.84
2019-05-16T13:43:09.542Z,12.81
2019-05-16T13:45:52.558Z,12.83
2019-05-16T13:48:40.337Z,12.78
2019-05-16T13:51:28.684Z,12.73
2019-05-16T13:54:17.668Z,12.79
2019-05-16T13:57:06.765Z,12.72
2019-05-16T13:59:51.701Z,12.59
2019-05-16T14:02:38.714Z,12.57
2019-05-16T14:05:26.816Z,12.50
2019-05-16T14:08:26.909Z,12.38
2019-05-16T14:11:17.159Z,12.32
2019-05-16T14:14:04.721Z,12.35
2019-05-16T14:17:03.847Z,12.37
2019-05-16T14:19:50.866Z,12.33
2019-05-16T14:22:38.800Z,12.35
2019-05-16T14:25:26.955Z,12.37
2019-05-16T14:28:13.979Z,12.41
2019-05-16T14:31:00.907Z,12.40
2019-05-16T14:33:49.419Z,12.36
2019-05-16T14:36:37.702Z,12.32
2019-05-16T14:39:23.477Z,12.29
2019-05-16T14:42:10.749Z,12.26
2019-05-16T14:45:09.883Z,12.26
2019-05-16T14:47:47.506Z,12.30
2019-05-16T14:50:33.763Z,12.33
2019-05-16T14:53:21.288Z,12.25
2019-05-16T14:56:18.166Z,13.08
2019-05-16T14:59:13.129Z,12.48
2019-05-16T15:02:00.051Z,12.42
2019-05-16T15:07:53.421Z,13.30
2019-05-16T15:10:40.288Z,12.76
2019-05-16T15:13:28.169Z,12.66
2019-05-16T15:16:16.928Z,12.65
2019-05-16T15:19:17.518Z,13.49
2019-05-16T15:22:03.785Z,12.91
2019-05-16T15:24:50.478Z,12.85
2019-05-16T15:27:52.086Z,13.71
2019-05-16T15:30:39.559Z,13.09
2019-05-16T15:33:27.338Z,13.05
2019-05-16T15:36:20.524Z,13.03
2019-05-16T15:39:08.096Z,13.88
2019-05-16T15:42:11.485Z,13.23
2019-05-16T15:44:59.074Z,13.12
2019-05-16T15:47:46.592Z,13.12
2019-05-16T15:50:37.114Z,13.14
2019-05-16T15:53:36.302Z,13.08
2019-05-16T15:56:23.402Z,13.02
2019-05-16T15:59:27.022Z,13.04
2019-05-16T16:02:12.172Z,13.05
2019-05-16T16:04:59.093Z,12.97
2019-05-16T16:07:48.270Z,13.89
2019-05-16T16:10:37.927Z,13.27
2019-05-16T16:13:26.835Z,13.16
2019-05-16T16:16:17.469Z,13.09
2019-05-16T16:19:03.449Z,13.05
2019-05-16T16:21:50.894Z,13.04
2019-05-16T16:24:38.505Z,13.04
2019-05-16T16:27:27.496Z,13.03
2019-05-16T16:30:13.271Z,13.01
2019-05-16T16:33:00.473Z,12.99
2019-05-16T16:36:01.967Z,12.99
2019-05-16T16:38:50.261Z,12.94
2019-05-16T16:41:37.800Z,12.91
2019-05-16T16:47:30.674Z,12.84
2019-05-16T16:50:21.007Z,12.84
2019-05-16T16:53:08.383Z,12.84
2019-05-16T16:55:56.906Z,12.83
2019-05-16T16:58:43.625Z,12.80
2019-05-16T17:01:37.170Z,12.76
2019-05-16T17:04:38.816Z,13.61
2019-05-16T17:07:23.270Z,12.97
2019-05-16T17:10:12.562Z,12.86
2019-05-16T17:12:59.497Z,12.81
2019-05-16T17:15:47.446Z,12.75
2019-05-16T17:18:36.739Z,12.69
2019-05-16T17:21:22.234Z,12.61
2019-05-16T17:24:09.660Z,12.56
2019-05-16T17:27:11.443Z,12.51
2019-05-16T17:30:00.869Z,12.44
2019-05-16T17:32:46.320Z,12.41
2019-05-16T17:35:33.225Z,12.37
2019-05-16T17:38:20.751Z,12.34
2019-05-16T17:41:16.750Z,12.30
2019-05-16T17:44:04.271Z,12.26
2019-05-16T17:46:52.997Z,12.24
2019-05-16T17:49:46.437Z,12.20
2019-05-16T17:52:36.695Z,12.14
2019-05-16T17:55:20.973Z,12.12
2019-05-16T17:58:09.614Z,12.10
2019-05-16T18:01:00.108Z,12.08
2019-05-16T18:03:44.557Z,12.05
2019-05-16T18:09:42.791Z,12.03
2019-05-16T18:12:27.568Z,12.02
2019-05-16T18:15:14.095Z,12.00
2019-05-16T18:18:01.157Z,11.98
2019-05-16T18:20:57.734Z,11.96
2019-05-16T18:23:38.832Z,11.92
2019-05-16T18:26:26.914Z,11.89
2019-05-16T18:29:13.493Z,11.84
2019-05-16T18:32:01.312Z,11.80
2019-05-16T18:34:48.720Z,11.76
2019-05-16T18:37:35.913Z,11.73
2019-05-16T18:40:24.101Z,11.69
2019-05-16T18:43:11.268Z,11.64
2019-05-16T18:45:59.199Z,11.61
2019-05-16T18:48:47.260Z,12.40
2019-05-16T18:51:34.082Z,11.84
2019-05-16T18:54:21.215Z,12.55
2019-05-16T18:57:08.124Z,11.94
2019-05-16T18:59:56.828Z,11.80
2019-05-16T19:02:42.490Z,11.72
2019-05-16T19:05:29.865Z,11.66
2019-05-16T19:08:16.795Z,11.61
2019-05-16T19:11:07.525Z,11.57
2019-05-16T19:13:53.666Z,11.55
2019-05-16T19:16:41.705Z,11.51
2019-05-16T19:19:28.544Z,11.49
2019-05-16T19:22:17.782Z,11.47
2019-05-16T19:25:06.926Z,11.46
2019-05-16T19:27:53.013Z,11.45
2019-05-16T19:30:39.687Z,12.22
2019-05-16T19:33:26.681Z,11.70
2019-05-16T19:36:16.553Z,11.59
2019-05-16T19:39:01.948Z,11.55
2019-05-16T19:41:50.006Z,11.52
2019-05-16T19:44:37.408Z,11.50
2019-05-16T19:47:35.049Z,11.48
2019-05-16T19:50:12.252Z,12.23
2019-05-16T19:53:16.423Z,11.70
2019-05-16T19:56:03.089Z,11.57
2019-05-16T19:58:50.280Z,11.52
2019-05-16T20:01:37.837Z,11.47
2019-05-16T20:04:27.428Z,11.43
2019-05-16T20:07:12.669Z,11.38
2019-05-16T20:09:59.505Z,11.35
2019-05-16T20:12:46.420Z,11.33
2019-05-16T20:15:33.644Z,11.31
2019-05-16T20:18:23.199Z,11.29
2019-05-16T20:21:11.021Z,12.05
2019-05-16T20:23:58.465Z,11.53
2019-05-16T20:26:46.443Z,11.42
2019-05-16T20:29:40.358Z,11.35
2019-05-16T20:32:30.641Z,11.31
2019-05-16T20:35:18.891Z,11.28
2019-05-16T20:38:06.803Z,11.24
2019-05-16T20:41:07.996Z,11.23
2019-05-16T20:43:57.163Z,11.21
2019-05-16T20:46:42.677Z,11.19
2019-05-16T20:49:30.615Z,11.17
2019-05-16T20:52:18.680Z,11.15
2019-05-16T20:55:07.114Z,11.15
2019-05-16T20:57:53.309Z,11.14
2019-05-16T21:00:40.752Z,11.12
2019-05-16T21:03:27.598Z,11.11
2019-05-16T21:06:17.094Z,11.87
2019-05-16T21:09:03.104Z,11.35
2019-05-16T21:11:50.195Z,11.25
2019-05-16T21:14:39.818Z,11.20
2019-05-16T21:17:29.918Z,11.13
2019-05-16T21:20:17.645Z,11.07
2019-05-16T21:23:07.155Z,10.99
2019-05-16T21:25:59.475Z,11.63
2019-05-16T21:28:47.542Z,10.98
2019-05-16T21:31:48.887Z,10.78
2019-05-16T21:34:36.573Z,10.59
2019-05-16T21:37:22.820Z,10.44
2019-05-16T21:40:09.968Z,10.29
2019-05-16T21:42:58.778Z,10.16
2019-05-16T21:45:47.273Z,10.02
2019-05-16T21:48:47.325Z,9.90
2019-05-16T21:51:37.274Z,9.76
2019-05-16T21:54:22.303Z,9.66
2019-05-16T21:57:09.546Z,9.55
2019-05-16T22:00:11.106Z,9.45
2019-05-16T22:02:58.274Z,9.24
2019-05-16T22:05:46.528Z,9.06
2019-05-16T22:08:39.750Z,8.96
2019-05-16T22:11:29.684Z,8.88
2019-05-16T22:14:17.146Z,8.81
2019-05-16T22:17:06.311Z,8.72
2019-05-16T22:20:09.468Z,8.64
2019-05-16T22:22:57.418Z,8.52
2019-05-16T22:25:49.175Z,8.44
2019-05-16T22:28:33.888Z,8.35
2019-05-16T22:31:20.981Z,8.27
2019-05-16T22:34:08.103Z,8.20
2019-05-16T22:36:57.240Z,8.12
2019-05-16T22:39:42.311Z,8.04
2019-05-16T22:42:46.766Z,8.72
2019-05-16T22:45:32.937Z,8.17
2019-05-16T22:48:20.287Z,8.03
2019-05-16T22:51:07.349Z,8.71
2019-05-16T22:53:58.468Z,8.15
2019-05-16T22:56:41.239Z,7.99
2019-05-16T22:59:42.564Z,7.84
2019-05-16T23:02:31.011Z,7.70
2019-05-16T23:08:38.760Z,7.49
2019-05-16T23:11:27.009Z,7.43
2019-05-16T23:14:12.761Z,8.24
2019-05-16T23:17:00.191Z,7.76
2019-05-16T23:19:47.614Z,7.72
2019-05-16T23:22:42.025Z,7.74
2019-05-16T23:25:29.727Z,7.73
2019-05-16T23:28:17.039Z,8.49
2019-05-16T23:31:04.056Z,8.01
2019-05-16T23:33:51.583Z,7.95
2019-05-16T23:36:46.247Z,7.95
2019-05-16T23:39:32.986Z,7.95
2019-05-16T23:42:21.121Z,7.95
2019-05-16T23:45:08.887Z,7.98
2019-05-16T23:47:56.377Z,8.00
2019-05-16T23:50:41.848Z,8.02
2019-05-16T23:53:29.212Z,8.05
